sensor_id;sensor_type;location;lat;lon;timestamp;P1;durP1;ratioP1;P2;durP2;ratioP2
34892;SDS011;21106;52.240;20.902;2023-10-13T00:02:24;13.60;;;6.00;;
34892;SDS011;21106;52.240;20.902;2023-10-13T00:07:51;16.40;;;6.60;;
34892;SDS011;21106;52.240;20.902;2023-10-13T00:13:18;15.30;;;7.40;;
34892;SDS011;21106;52.240;20.902;2023-10-13T00:18:47;17.00;;;7.20;;
34892;SDS011;21106;52.240;20.902;2023-10-13T00:24:14;20.30;;;7.20;;
34892;SDS011;21106;52.240;20.902;2023-10-13T00:29:41;18.40;;;7.00;;
34892;SDS011;21106;52.240;20.902;2023-10-13T00:35:10;17.00;;;7.30;;
34892;SDS011;21106;52.240;20.902;2023-10-13T00:40:40;11.60;;;6.80;;
34892;SDS011;21106;52.240;20.902;2023-10-13T00:46:06;15.30;;;6.60;;
34892;SDS011;21106;52.240;20.902;2023-10-13T00:51:34;16.60;;;6.90;;
34892;SDS011;21106;52.240;20.902;2023-10-13T00:57:01;16.20;;;6.80;;
34892;SDS011;21106;52.240;20.902;2023-10-13T01:02:38;16.10;;;6.90;;
34892;SDS011;21106;52.240;20.902;2023-10-13T01:08:05;14.90;;;6.70;;
34892;SDS011;21106;52.240;20.902;2023-10-13T01:13:37;17.20;;;7.50;;
34892;SDS011;21106;52.240;20.902;2023-10-13T01:19:03;15.90;;;6.80;;
34892;SDS011;21106;52.240;20.902;2023-10-13T01:24:32;15.70;;;7.70;;
34892;SDS011;21106;52.240;20.902;2023-10-13T01:30:01;11.70;;;6.70;;
34892;SDS011;21106;52.240;20.902;2023-10-13T01:35:36;13.20;;;7.00;;
34892;SDS011;21106;52.240;20.902;2023-10-13T01:41:08;13.80;;;6.90;;
34892;SDS011;21106;52.240;20.902;2023-10-13T01:46:35;15.80;;;7.10;;
34892;SDS011;21106;52.240;20.902;2023-10-13T01:52:03;18.30;;;7.90;;
34892;SDS011;21106;52.240;20.902;2023-10-13T01:57:30;20.90;;;7.60;;
34892;SDS011;21106;52.240;20.902;2023-10-13T02:02:59;13.80;;;7.40;;
34892;SDS011;21106;52.240;20.902;2023-10-13T02:08:28;11.80;;;6.40;;
34892;SDS011;21106;52.240;20.902;2023-10-13T02:13:55;14.30;;;6.50;;
34892;SDS011;21106;52.240;20.902;2023-10-13T02:19:23;15.20;;;6.80;;
34892;SDS011;21106;52.240;20.902;2023-10-13T02:24:53;13.70;;;6.80;;
34892;SDS011;21106;52.240;20.902;2023-10-13T02:30:20;17.60;;;7.10;;
34892;SDS011;21106;52.240;20.902;2023-10-13T02:35:50;18.20;;;7.70;;
34892;SDS011;21106;52.240;20.902;2023-10-13T02:41:19;17.90;;;7.60;;
34892;SDS011;21106;52.240;20.902;2023-10-13T02:46:53;21.80;;;8.20;;
34892;SDS011;21106;52.240;20.902;2023-10-13T02:52:22;16.70;;;7.60;;
34892;SDS011;21106;52.240;20.902;2023-10-13T02:57:51;15.40;;;7.30;;
34892;SDS011;21106;52.240;20.902;2023-10-13T03:03:21;18.70;;;8.10;;
34892;SDS011;21106;52.240;20.902;2023-10-13T03:08:49;14.20;;;6.90;;
34892;SDS011;21106;52.240;20.902;2023-10-13T03:14:16;18.20;;;7.00;;
34892;SDS011;21106;52.240;20.902;2023-10-13T03:19:59;18.20;;;7.70;;
34892;SDS011;21106;52.240;20.902;2023-10-13T03:25:26;15.20;;;6.90;;
34892;SDS011;21106;52.240;20.902;2023-10-13T03:30:56;17.40;;;7.50;;
34892;SDS011;21106;52.240;20.902;2023-10-13T03:36:27;13.30;;;6.40;;
34892;SDS011;21106;52.240;20.902;2023-10-13T03:42:23;12.70;;;6.60;;
34892;SDS011;21106;52.240;20.902;2023-10-13T03:47:51;14.60;;;7.10;;
34892;SDS011;21106;52.240;20.902;2023-10-13T03:53:20;15.60;;;7.30;;
34892;SDS011;21106;52.240;20.902;2023-10-13T03:58:55;15.30;;;6.50;;
34892;SDS011;21106;52.240;20.902;2023-10-13T04:04:27;14.00;;;5.70;;
34892;SDS011;21106;52.240;20.902;2023-10-13T04:10:13;22.80;;;6.90;;
34892;SDS011;21106;52.240;20.902;2023-10-13T04:16:03;15.60;;;6.10;;
34892;SDS011;21106;52.240;20.902;2023-10-13T04:21:48;12.50;;;5.90;;
34892;SDS011;21106;52.240;20.902;2023-10-13T04:27:25;20.10;;;6.70;;
34892;SDS011;21106;52.240;20.902;2023-10-13T04:33:23;13.20;;;6.00;;
34892;SDS011;21106;52.240;20.902;2023-10-13T04:39:03;15.10;;;6.10;;
34892;SDS011;21106;52.240;20.902;2023-10-13T04:44:30;17.60;;;5.70;;
34892;SDS011;21106;52.240;20.902;2023-10-13T04:49:56;14.90;;;5.90;;
34892;SDS011;21106;52.240;20.902;2023-10-13T04:55:27;13.40;;;5.50;;
34892;SDS011;21106;52.240;20.902;2023-10-13T05:01:14;21.90;;;6.10;;
34892;SDS011;21106;52.240;20.902;2023-10-13T05:06:50;15.20;;;5.70;;
34892;SDS011;21106;52.240;20.902;2023-10-13T05:12:35;13.10;;;6.00;;
34892;SDS011;21106;52.240;20.902;2023-10-13T05:18:21;16.50;;;6.80;;
34892;SDS011;21106;52.240;20.902;2023-10-13T05:24:07;17.60;;;5.60;;
34892;SDS011;21106;52.240;20.902;2023-10-13T05:29:52;17.10;;;6.70;;
34892;SDS011;21106;52.240;20.902;2023-10-13T05:35:38;20.30;;;7.90;;
34892;SDS011;21106;52.240;20.902;2023-10-13T05:41:24;13.10;;;6.10;;
34892;SDS011;21106;52.240;20.902;2023-10-13T05:47:09;12.50;;;6.10;;
34892;SDS011;21106;52.240;20.902;2023-10-13T05:52:54;11.20;;;5.90;;
34892;SDS011;21106;52.240;20.902;2023-10-13T05:58:24;20.80;;;7.40;;
34892;SDS011;21106;52.240;20.902;2023-10-13T06:04:09;28.20;;;7.40;;
34892;SDS011;21106;52.240;20.902;2023-10-13T06:09:44;21.00;;;7.70;;
34892;SDS011;21106;52.240;20.902;2023-10-13T06:15:09;17.10;;;6.60;;
34892;SDS011;21106;52.240;20.902;2023-10-13T06:20:38;18.20;;;7.40;;
34892;SDS011;21106;52.240;20.902;2023-10-13T06:26:02;22.30;;;6.40;;
34892;SDS011;21106;52.240;20.902;2023-10-13T06:31:27;17.90;;;6.10;;
34892;SDS011;21106;52.240;20.902;2023-10-13T06:36:33;15.20;;;6.30;;
34892;SDS011;21106;52.240;20.902;2023-10-13T06:41:40;15.80;;;6.10;;
34892;SDS011;21106;52.240;20.902;2023-10-13T06:46:47;19.60;;;6.60;;
34892;SDS011;21106;52.240;20.902;2023-10-13T06:51:55;18.00;;;5.50;;
34892;SDS011;21106;52.240;20.902;2023-10-13T06:57:06;13.00;;;5.40;;
34892;SDS011;21106;52.240;20.902;2023-10-13T07:02:26;14.30;;;4.90;;
34892;SDS011;21106;52.240;20.902;2023-10-13T07:07:39;21.60;;;4.70;;
34892;SDS011;21106;52.240;20.902;2023-10-13T07:12:46;13.80;;;5.70;;
34892;SDS011;21106;52.240;20.902;2023-10-13T07:17:55;19.40;;;5.40;;
34892;SDS011;21106;52.240;20.902;2023-10-13T07:23:05;17.60;;;6.30;;
34892;SDS011;21106;52.240;20.902;2023-10-13T07:28:11;26.90;;;6.50;;
34892;SDS011;21106;52.240;20.902;2023-10-13T07:33:17;19.70;;;5.60;;
34892;SDS011;21106;52.240;20.902;2023-10-13T07:38:25;18.40;;;5.10;;
34892;SDS011;21106;52.240;20.902;2023-10-13T07:43:36;14.50;;;4.30;;
34892;SDS011;21106;52.240;20.902;2023-10-13T07:48:45;14.40;;;4.40;;
34892;SDS011;21106;52.240;20.902;2023-10-13T07:53:51;14.00;;;3.90;;
34892;SDS011;21106;52.240;20.902;2023-10-13T07:58:58;18.60;;;4.60;;
34892;SDS011;21106;52.240;20.902;2023-10-13T08:04:07;16.70;;;4.10;;
34892;SDS011;21106;52.240;20.902;2023-10-13T08:09:16;17.00;;;4.30;;
34892;SDS011;21106;52.240;20.902;2023-10-13T08:14:45;11.10;;;3.60;;
34892;SDS011;21106;52.240;20.902;2023-10-13T08:19:52;15.70;;;3.50;;
34892;SDS011;21106;52.240;20.902;2023-10-13T08:24:58;10.30;;;3.20;;
34892;SDS011;21106;52.240;20.902;2023-10-13T08:30:24;12.70;;;4.10;;
34892;SDS011;21106;52.240;20.902;2023-10-13T08:35:34;11.60;;;4.10;;
34892;SDS011;21106;52.240;20.902;2023-10-13T08:40:42;12.90;;;4.60;;
34892;SDS011;21106;52.240;20.902;2023-10-13T08:46:01;14.50;;;4.80;;
34892;SDS011;21106;52.240;20.902;2023-10-13T08:51:12;14.80;;;5.60;;
34892;SDS011;21106;52.240;20.902;2023-10-13T08:56:36;10.90;;;6.10;;
34892;SDS011;21106;52.240;20.902;2023-10-13T09:01:52;24.70;;;6.10;;
34892;SDS011;21106;52.240;20.902;2023-10-13T09:07:21;18.40;;;5.60;;
34892;SDS011;21106;52.240;20.902;2023-10-13T09:12:31;22.20;;;6.30;;
34892;SDS011;21106;52.240;20.902;2023-10-13T09:22:54;21.30;;;6.90;;
34892;SDS011;21106;52.240;20.902;2023-10-13T09:28:13;17.80;;;6.80;;
34892;SDS011;21106;52.240;20.902;2023-10-13T09:33:25;15.00;;;7.00;;
34892;SDS011;21106;52.240;20.902;2023-10-13T09:38:45;15.60;;;6.70;;
34892;SDS011;21106;52.240;20.902;2023-10-13T09:44:14;17.60;;;6.50;;
34892;SDS011;21106;52.240;20.902;2023-10-13T09:49:23;21.80;;;8.70;;
34892;SDS011;21106;52.240;20.902;2023-10-13T10:00:11;16.60;;;7.30;;
34892;SDS011;21106;52.240;20.902;2023-10-13T10:05:43;22.60;;;7.40;;
34892;SDS011;21106;52.240;20.902;2023-10-13T10:11:04;16.60;;;6.60;;
34892;SDS011;21106;52.240;20.902;2023-10-13T10:16:14;14.20;;;7.10;;
34892;SDS011;21106;52.240;20.902;2023-10-13T10:21:35;21.20;;;7.90;;
34892;SDS011;21106;52.240;20.902;2023-10-13T10:26:51;14.50;;;7.20;;
34892;SDS011;21106;52.240;20.902;2023-10-13T10:31:59;15.30;;;7.10;;
34892;SDS011;21106;52.240;20.902;2023-10-13T10:37:06;14.60;;;7.20;;
34892;SDS011;21106;52.240;20.902;2023-10-13T10:42:14;15.30;;;7.50;;
34892;SDS011;21106;52.240;20.902;2023-10-13T10:47:21;15.80;;;6.50;;
34892;SDS011;21106;52.240;20.902;2023-10-13T10:52:36;14.30;;;6.70;;
34892;SDS011;21106;52.240;20.902;2023-10-13T10:57:44;16.40;;;7.10;;
34892;SDS011;21106;52.240;20.902;2023-10-13T11:02:56;22.60;;;7.80;;
34892;SDS011;21106;52.240;20.902;2023-10-13T11:08:02;18.20;;;6.90;;
34892;SDS011;21106;52.240;20.902;2023-10-13T11:13:14;15.60;;;6.80;;
34892;SDS011;21106;52.240;20.902;2023-10-13T11:18:30;17.20;;;6.70;;
34892;SDS011;21106;52.240;20.902;2023-10-13T11:23:54;20.20;;;6.70;;
34892;SDS011;21106;52.240;20.902;2023-10-13T11:29:00;18.30;;;6.70;;
34892;SDS011;21106;52.240;20.902;2023-10-13T11:34:12;16.50;;;6.50;;
34892;SDS011;21106;52.240;20.902;2023-10-13T11:39:22;18.30;;;6.70;;
34892;SDS011;21106;52.240;20.902;2023-10-13T11:44:30;19.20;;;6.90;;
34892;SDS011;21106;52.240;20.902;2023-10-13T11:49:39;16.20;;;6.90;;
34892;SDS011;21106;52.240;20.902;2023-10-13T11:54:44;15.00;;;6.00;;
34892;SDS011;21106;52.240;20.902;2023-10-13T11:59:52;16.20;;;5.90;;
34892;SDS011;21106;52.240;20.902;2023-10-13T12:05:24;14.00;;;5.90;;
34892;SDS011;21106;52.240;20.902;2023-10-13T12:10:43;17.50;;;5.70;;
34892;SDS011;21106;52.240;20.902;2023-10-13T12:16:05;14.00;;;5.70;;
34892;SDS011;21106;52.240;20.902;2023-10-13T12:21:14;12.10;;;5.00;;
34892;SDS011;21106;52.240;20.902;2023-10-13T12:26:25;19.30;;;6.20;;
34892;SDS011;21106;52.240;20.902;2023-10-13T12:31:38;19.10;;;6.90;;
34892;SDS011;21106;52.240;20.902;2023-10-13T12:36:45;19.30;;;6.50;;
34892;SDS011;21106;52.240;20.902;2023-10-13T12:41:59;19.20;;;6.90;;
34892;SDS011;21106;52.240;20.902;2023-10-13T12:47:23;14.30;;;6.00;;
34892;SDS011;21106;52.240;20.902;2023-10-13T12:52:48;17.40;;;6.30;;
34892;SDS011;21106;52.240;20.902;2023-10-13T12:57:54;12.40;;;5.80;;
34892;SDS011;21106;52.240;20.902;2023-10-13T13:03:01;14.90;;;6.80;;
34892;SDS011;21106;52.240;20.902;2023-10-13T13:08:16;15.70;;;7.00;;
34892;SDS011;21106;52.240;20.902;2023-10-13T13:13:27;16.10;;;6.40;;
34892;SDS011;21106;52.240;20.902;2023-10-13T13:18:34;12.60;;;6.60;;
34892;SDS011;21106;52.240;20.902;2023-10-13T13:23:40;13.60;;;7.00;;
34892;SDS011;21106;52.240;20.902;2023-10-13T13:28:47;15.10;;;6.30;;
34892;SDS011;21106;52.240;20.902;2023-10-13T13:39:02;14.40;;;6.50;;
34892;SDS011;21106;52.240;20.902;2023-10-13T13:44:10;17.90;;;6.80;;
34892;SDS011;21106;52.240;20.902;2023-10-13T13:49:19;16.20;;;6.70;;
34892;SDS011;21106;52.240;20.902;2023-10-13T13:54:29;16.80;;;7.20;;
34892;SDS011;21106;52.240;20.902;2023-10-13T13:59:35;15.30;;;6.60;;
34892;SDS011;21106;52.240;20.902;2023-10-13T14:04:41;14.20;;;6.30;;
34892;SDS011;21106;52.240;20.902;2023-10-13T14:09:52;18.00;;;6.80;;
34892;SDS011;21106;52.240;20.902;2023-10-13T14:14:58;35.90;;;7.40;;
34892;SDS011;21106;52.240;20.902;2023-10-13T14:20:06;13.60;;;6.80;;
34892;SDS011;21106;52.240;20.902;2023-10-13T14:25:15;21.30;;;6.30;;
34892;SDS011;21106;52.240;20.902;2023-10-13T14:30:22;16.40;;;8.70;;
34892;SDS011;21106;52.240;20.902;2023-10-13T14:35:28;22.70;;;7.40;;
34892;SDS011;21106;52.240;20.902;2023-10-13T14:40:35;14.90;;;7.00;;
34892;SDS011;21106;52.240;20.902;2023-10-13T14:45:41;15.30;;;7.70;;
34892;SDS011;21106;52.240;20.902;2023-10-13T14:50:47;19.40;;;6.90;;
34892;SDS011;21106;52.240;20.902;2023-10-13T14:55:54;18.60;;;6.70;;
34892;SDS011;21106;52.240;20.902;2023-10-13T15:01:00;18.90;;;7.50;;
34892;SDS011;21106;52.240;20.902;2023-10-13T15:06:07;18.10;;;6.70;;
34892;SDS011;21106;52.240;20.902;2023-10-13T15:11:13;13.80;;;7.50;;
34892;SDS011;21106;52.240;20.902;2023-10-13T15:16:21;14.50;;;6.50;;
34892;SDS011;21106;52.240;20.902;2023-10-13T15:21:27;16.70;;;7.40;;
34892;SDS011;21106;52.240;20.902;2023-10-13T15:26:57;16.50;;;7.90;;
34892;SDS011;21106;52.240;20.902;2023-10-13T15:32:07;17.20;;;8.00;;
34892;SDS011;21106;52.240;20.902;2023-10-13T15:37:32;21.40;;;8.30;;
34892;SDS011;21106;52.240;20.902;2023-10-13T15:42:38;17.60;;;8.70;;
34892;SDS011;21106;52.240;20.902;2023-10-13T15:47:46;15.10;;;7.70;;
34892;SDS011;21106;52.240;20.902;2023-10-13T15:52:53;11.00;;;7.10;;
34892;SDS011;21106;52.240;20.902;2023-10-13T15:58:00;18.50;;;9.20;;
34892;SDS011;21106;52.240;20.902;2023-10-13T16:03:06;19.00;;;9.60;;
34892;SDS011;21106;52.240;20.902;2023-10-13T16:13:24;19.70;;;9.70;;
34892;SDS011;21106;52.240;20.902;2023-10-13T16:18:29;18.00;;;8.60;;
34892;SDS011;21106;52.240;20.902;2023-10-13T16:23:38;13.50;;;8.20;;
34892;SDS011;21106;52.240;20.902;2023-10-13T16:28:47;24.00;;;8.50;;
34892;SDS011;21106;52.240;20.902;2023-10-13T16:33:54;18.80;;;7.90;;
34892;SDS011;21106;52.240;20.902;2023-10-13T16:39:00;19.90;;;9.40;;
34892;SDS011;21106;52.240;20.902;2023-10-13T16:44:06;20.20;;;8.20;;
34892;SDS011;21106;52.240;20.902;2023-10-13T16:49:15;16.10;;;8.80;;
34892;SDS011;21106;52.240;20.902;2023-10-13T16:54:21;16.50;;;9.20;;
34892;SDS011;21106;52.240;20.902;2023-10-13T16:59:26;11.60;;;8.00;;
34892;SDS011;21106;52.240;20.902;2023-10-13T17:04:32;17.10;;;8.80;;
34892;SDS011;21106;52.240;20.902;2023-10-13T17:09:38;25.40;;;9.30;;
34892;SDS011;21106;52.240;20.902;2023-10-13T17:14:45;23.50;;;9.10;;
34892;SDS011;21106;52.240;20.902;2023-10-13T17:19:51;14.00;;;8.20;;
34892;SDS011;21106;52.240;20.902;2023-10-13T17:24:58;15.20;;;9.10;;
34892;SDS011;21106;52.240;20.902;2023-10-13T17:30:06;18.90;;;8.70;;
34892;SDS011;21106;52.240;20.902;2023-10-13T17:35:13;15.20;;;8.50;;
34892;SDS011;21106;52.240;20.902;2023-10-13T17:40:19;17.20;;;9.60;;
34892;SDS011;21106;52.240;20.902;2023-10-13T17:45:26;19.40;;;8.60;;
34892;SDS011;21106;52.240;20.902;2023-10-13T17:50:32;15.40;;;8.70;;
34892;SDS011;21106;52.240;20.902;2023-10-13T17:55:39;15.80;;;8.90;;
34892;SDS011;21106;52.240;20.902;2023-10-13T18:00:45;15.40;;;8.80;;
34892;SDS011;21106;52.240;20.902;2023-10-13T18:05:58;13.40;;;7.60;;
34892;SDS011;21106;52.240;20.902;2023-10-13T18:11:04;18.90;;;9.10;;
34892;SDS011;21106;52.240;20.902;2023-10-13T18:16:12;17.90;;;8.80;;
34892;SDS011;21106;52.240;20.902;2023-10-13T18:21:19;20.60;;;8.60;;
34892;SDS011;21106;52.240;20.902;2023-10-13T18:26:25;13.50;;;8.90;;
34892;SDS011;21106;52.240;20.902;2023-10-13T18:31:30;16.70;;;9.50;;
34892;SDS011;21106;52.240;20.902;2023-10-13T18:36:37;17.20;;;9.30;;
34892;SDS011;21106;52.240;20.902;2023-10-13T18:41:43;16.30;;;9.20;;
34892;SDS011;21106;52.240;20.902;2023-10-13T18:46:49;30.40;;;10.20;;
34892;SDS011;21106;52.240;20.902;2023-10-13T18:51:56;14.40;;;9.70;;
34892;SDS011;21106;52.240;20.902;2023-10-13T18:57:02;16.20;;;9.50;;
34892;SDS011;21106;52.240;20.902;2023-10-13T19:02:09;21.10;;;9.80;;
34892;SDS011;21106;52.240;20.902;2023-10-13T19:07:15;20.20;;;9.50;;
34892;SDS011;21106;52.240;20.902;2023-10-13T19:12:21;18.50;;;9.10;;
34892;SDS011;21106;52.240;20.902;2023-10-13T19:17:28;17.80;;;9.00;;
34892;SDS011;21106;52.240;20.902;2023-10-13T19:22:34;17.30;;;9.60;;
34892;SDS011;21106;52.240;20.902;2023-10-13T19:27:41;16.40;;;9.40;;
34892;SDS011;21106;52.240;20.902;2023-10-13T19:32:46;26.50;;;8.80;;
34892;SDS011;21106;52.240;20.902;2023-10-13T19:37:52;12.10;;;8.10;;
34892;SDS011;21106;52.240;20.902;2023-10-13T19:42:58;16.60;;;10.50;;
34892;SDS011;21106;52.240;20.902;2023-10-13T19:48:05;19.30;;;8.60;;
34892;SDS011;21106;52.240;20.902;2023-10-13T19:53:13;17.60;;;8.70;;
34892;SDS011;21106;52.240;20.902;2023-10-13T19:58:20;16.80;;;7.60;;
34892;SDS011;21106;52.240;20.902;2023-10-13T20:03:25;16.50;;;8.70;;
34892;SDS011;21106;52.240;20.902;2023-10-13T20:08:31;13.10;;;8.00;;
34892;SDS011;21106;52.240;20.902;2023-10-13T20:13:38;14.40;;;8.20;;
34892;SDS011;21106;52.240;20.902;2023-10-13T20:18:48;16.40;;;8.30;;
34892;SDS011;21106;52.240;20.902;2023-10-13T20:23:55;18.50;;;8.10;;
34892;SDS011;21106;52.240;20.902;2023-10-13T20:29:04;14.60;;;8.20;;
34892;SDS011;21106;52.240;20.902;2023-10-13T20:34:10;12.10;;;7.40;;
34892;SDS011;21106;52.240;20.902;2023-10-13T20:39:18;15.60;;;6.60;;
34892;SDS011;21106;52.240;20.902;2023-10-13T20:44:30;13.10;;;7.00;;
34892;SDS011;21106;52.240;20.902;2023-10-13T20:49:37;14.80;;;6.60;;
34892;SDS011;21106;52.240;20.902;2023-10-13T20:54:44;12.80;;;6.90;;
34892;SDS011;21106;52.240;20.902;2023-10-13T20:59:50;20.00;;;7.90;;
34892;SDS011;21106;52.240;20.902;2023-10-13T21:04:57;10.30;;;6.70;;
34892;SDS011;21106;52.240;20.902;2023-10-13T21:10:03;15.20;;;8.30;;
34892;SDS011;21106;52.240;20.902;2023-10-13T21:15:10;18.90;;;8.10;;
34892;SDS011;21106;52.240;20.902;2023-10-13T21:20:21;13.40;;;6.70;;
34892;SDS011;21106;52.240;20.902;2023-10-13T21:25:27;11.20;;;6.30;;
34892;SDS011;21106;52.240;20.902;2023-10-13T21:30:33;17.00;;;6.50;;
34892;SDS011;21106;52.240;20.902;2023-10-13T21:35:39;12.60;;;6.10;;
34892;SDS011;21106;52.240;20.902;2023-10-13T21:40:45;11.20;;;6.60;;
34892;SDS011;21106;52.240;20.902;2023-10-13T21:45:52;16.10;;;6.90;;
34892;SDS011;21106;52.240;20.902;2023-10-13T21:50:58;23.10;;;7.60;;
34892;SDS011;21106;52.240;20.902;2023-10-13T21:56:04;11.30;;;5.70;;
34892;SDS011;21106;52.240;20.902;2023-10-13T22:01:16;13.70;;;6.20;;
34892;SDS011;21106;52.240;20.902;2023-10-13T22:06:28;11.00;;;5.80;;
34892;SDS011;21106;52.240;20.902;2023-10-13T22:11:38;12.60;;;6.50;;
34892;SDS011;21106;52.240;20.902;2023-10-13T22:16:44;16.30;;;7.30;;
34892;SDS011;21106;52.240;20.902;2023-10-13T22:21:50;11.00;;;6.20;;
34892;SDS011;21106;52.240;20.902;2023-10-13T22:26:57;16.50;;;7.10;;
34892;SDS011;21106;52.240;20.902;2023-10-13T22:32:03;15.20;;;5.60;;
34892;SDS011;21106;52.240;20.902;2023-10-13T22:37:11;14.10;;;5.70;;
34892;SDS011;21106;52.240;20.902;2023-10-13T22:42:16;12.80;;;5.40;;
34892;SDS011;21106;52.240;20.902;2023-10-13T22:47:24;17.00;;;7.30;;
34892;SDS011;21106;52.240;20.902;2023-10-13T22:52:30;12.80;;;7.00;;
34892;SDS011;21106;52.240;20.902;2023-10-13T22:57:36;15.90;;;6.30;;
34892;SDS011;21106;52.240;20.902;2023-10-13T23:02:44;15.10;;;6.10;;
34892;SDS011;21106;52.240;20.902;2023-10-13T23:07:50;14.10;;;5.40;;
34892;SDS011;21106;52.240;20.902;2023-10-13T23:13:06;10.80;;;5.70;;
34892;SDS011;21106;52.240;20.902;2023-10-13T23:18:13;16.00;;;6.10;;
34892;SDS011;21106;52.240;20.902;2023-10-13T23:23:19;14.50;;;7.60;;
34892;SDS011;21106;52.240;20.902;2023-10-13T23:28:25;12.70;;;5.80;;
34892;SDS011;21106;52.240;20.902;2023-10-13T23:33:31;11.70;;;5.70;;
34892;SDS011;21106;52.240;20.902;2023-10-13T23:38:38;12.20;;;5.60;;
34892;SDS011;21106;52.240;20.902;2023-10-13T23:43:44;13.10;;;5.90;;
34892;SDS011;21106;52.240;20.902;2023-10-13T23:48:51;13.90;;;5.30;;
34892;SDS011;21106;52.240;20.902;2023-10-13T23:53:59;9.10;;;5.30;;
34892;SDS011;21106;52.240;20.902;2023-10-13T23:59:22;17.10;;;6.60;;
